sensor_id;sensor_type;location;lat;lon;timestamp;pressure;altitude;pressure_sealevel;temperature;humidity
55077;BME280;40971;44.702;11.030;2023-04-26T00:07:28;101139.34;;;8.32;83.41
55077;BME280;40971;44.702;11.030;2023-04-26T00:28:10;101150.75;;;8.02;85.87
55077;BME280;40971;44.702;11.030;2023-04-26T00:38:12;101131.53;;;7.63;86.01
55077;BME280;40971;44.702;11.030;2023-04-26T00:48:14;101150.69;;;7.24;84.53
55077;BME280;40971;44.702;11.030;2023-04-26T00:58:16;101148.91;;;7.04;86.28
55077;BME280;40971;44.702;11.030;2023-04-26T01:08:22;101160.78;;;7.08;87.16
55077;BME280;40971;44.702;11.030;2023-04-26T01:18:43;101163.34;;;7.29;86.96
55077;BME280;40971;44.702;11.030;2023-04-26T01:28:45;101154.41;;;7.01;84.46
55077;BME280;40971;44.702;11.030;2023-04-26T01:39:07;101175.56;;;6.57;86.57
55077;BME280;40971;44.702;11.030;2023-04-26T01:49:10;101173.09;;;6.55;86.92
55077;BME280;40971;44.702;11.030;2023-04-26T01:59:13;101162.53;;;6.77;86.89
55077;BME280;40971;44.702;11.030;2023-04-26T02:09:14;101173.94;;;6.97;86.73
55077;BME280;40971;44.702;11.030;2023-04-26T02:19:17;101174.44;;;6.91;86.78
55077;BME280;40971;44.702;11.030;2023-04-26T02:29:21;101184.31;;;7.08;85.99
55077;BME280;40971;44.702;11.030;2023-04-26T02:39:24;101174.94;;;7.06;85.97
55077;BME280;40971;44.702;11.030;2023-04-26T02:49:26;101183.13;;;6.91;85.57
55077;BME280;40971;44.702;11.030;2023-04-26T02:59:30;101175.91;;;6.63;85.60
55077;BME280;40971;44.702;11.030;2023-04-26T03:09:33;101188.06;;;6.53;86.53
55077;BME280;40971;44.702;11.030;2023-04-26T03:19:34;101190.59;;;6.43;85.63
55077;BME280;40971;44.702;11.030;2023-04-26T03:29:38;101189.91;;;6.41;85.82
55077;BME280;40971;44.702;11.030;2023-04-26T03:39:40;101202.91;;;6.53;85.22
55077;BME280;40971;44.702;11.030;2023-04-26T03:49:41;101213.41;;;6.41;84.71
55077;BME280;40971;44.702;11.030;2023-04-26T03:59:43;101225.72;;;6.39;84.35
55077;BME280;40971;44.702;11.030;2023-04-26T04:09:45;101210.47;;;6.24;83.90
55077;BME280;40971;44.702;11.030;2023-04-26T04:19:46;101222.69;;;6.23;84.05
55077;BME280;40971;44.702;11.030;2023-04-26T04:29:48;101230.34;;;5.82;83.69
55077;BME280;40971;44.702;11.030;2023-04-26T04:39:52;101237.69;;;6.10;85.38
55077;BME280;40971;44.702;11.030;2023-04-26T04:49:55;101252.72;;;6.18;84.73
55077;BME280;40971;44.702;11.030;2023-04-26T04:59:57;101259.72;;;6.17;85.58
55077;BME280;40971;44.702;11.030;2023-04-26T05:10:02;101281.63;;;6.48;86.11
55077;BME280;40971;44.702;11.030;2023-04-26T05:20:04;101294.66;;;6.91;85.57
55077;BME280;40971;44.702;11.030;2023-04-26T05:30:07;101310.97;;;7.36;85.53
55077;BME280;40971;44.702;11.030;2023-04-26T05:40:10;101337.56;;;7.61;85.01
55077;BME280;40971;44.702;11.030;2023-04-26T05:50:13;101356.22;;;7.98;84.51
55077;BME280;40971;44.702;11.030;2023-04-26T06:00:14;101361.09;;;8.43;83.42
55077;BME280;40971;44.702;11.030;2023-04-26T06:10:17;101367.75;;;8.66;80.65
55077;BME280;40971;44.702;11.030;2023-04-26T06:20:18;101378.88;;;9.08;79.42
55077;BME280;40971;44.702;11.030;2023-04-26T06:30:19;101367.56;;;9.46;79.68
55077;BME280;40971;44.702;11.030;2023-04-26T06:40:21;101367.31;;;9.85;78.65
55077;BME280;40971;44.702;11.030;2023-04-26T06:50:23;101387.19;;;10.71;76.40
55077;BME280;40971;44.702;11.030;2023-04-26T07:00:24;101397.25;;;12.07;71.95
55077;BME280;40971;44.702;11.030;2023-04-26T07:10:28;101393.41;;;13.52;67.66
55077;BME280;40971;44.702;11.030;2023-04-26T07:20:32;101405.97;;;14.84;63.59
55077;BME280;40971;44.702;11.030;2023-04-26T07:30:36;101399.41;;;15.25;62.00
55077;BME280;40971;44.702;11.030;2023-04-26T07:40:37;101401.66;;;16.69;58.17
55077;BME280;40971;44.702;11.030;2023-04-26T07:50:39;101398.66;;;17.15;55.98
55077;BME280;40971;44.702;11.030;2023-04-26T08:00:41;101407.97;;;17.68;53.52
55077;BME280;40971;44.702;11.030;2023-04-26T08:10:42;101402.53;;;18.10;52.84
55077;BME280;40971;44.702;11.030;2023-04-26T08:20:43;101407.28;;;17.38;55.63
55077;BME280;40971;44.702;11.030;2023-04-26T08:30:44;101420.47;;;18.64;50.18
55077;BME280;40971;44.702;11.030;2023-04-26T08:40:46;101403.47;;;19.71;49.15
55077;BME280;40971;44.702;11.030;2023-04-26T08:50:48;101417.72;;;18.91;46.35
55077;BME280;40971;44.702;11.030;2023-04-26T09:00:51;101422.28;;;20.42;45.81
55077;BME280;40971;44.702;11.030;2023-04-26T09:10:54;101407.31;;;21.79;41.27
55077;BME280;40971;44.702;11.030;2023-04-26T09:21:06;101412.47;;;20.29;44.08
55077;BME280;40971;44.702;11.030;2023-04-26T09:31:08;101406.00;;;21.07;42.50
55077;BME280;40971;44.702;11.030;2023-04-26T09:41:11;101396.81;;;22.20;41.41
55077;BME280;40971;44.702;11.030;2023-04-26T09:51:12;101406.72;;;22.01;39.38
55077;BME280;40971;44.702;11.030;2023-04-26T10:01:16;101389.91;;;22.49;37.68
55077;BME280;40971;44.702;11.030;2023-04-26T10:11:20;101377.69;;;22.35;39.90
55077;BME280;40971;44.702;11.030;2023-04-26T10:21:28;101367.72;;;22.90;38.50
55077;BME280;40971;44.702;11.030;2023-04-26T10:42:26;101355.34;;;20.37;39.71
55077;BME280;40971;44.702;11.030;2023-04-26T10:52:29;101347.91;;;20.39;42.12
55077;BME280;40971;44.702;11.030;2023-04-26T11:02:52;101353.25;;;20.83;40.25
55077;BME280;40971;44.702;11.030;2023-04-26T11:13:01;101338.59;;;20.92;37.83
55077;BME280;40971;44.702;11.030;2023-04-26T11:23:06;101323.78;;;20.96;40.01
55077;BME280;40971;44.702;11.030;2023-04-26T11:33:19;101314.91;;;23.43;36.94
55077;BME280;40971;44.702;11.030;2023-04-26T11:43:49;101297.00;;;22.13;37.22
55077;BME280;40971;44.702;11.030;2023-04-26T11:53:52;101294.56;;;23.24;35.89
55077;BME280;40971;44.702;11.030;2023-04-26T12:03:57;101287.13;;;22.25;34.37
55077;BME280;40971;44.702;11.030;2023-04-26T12:14:00;101283.97;;;21.37;35.16
55077;BME280;40971;44.702;11.030;2023-04-26T12:24:01;101275.13;;;21.98;36.33
55077;BME280;40971;44.702;11.030;2023-04-26T12:34:05;101255.81;;;22.97;33.44
55077;BME280;40971;44.702;11.030;2023-04-26T12:44:07;101266.41;;;21.66;34.46
55077;BME280;40971;44.702;11.030;2023-04-26T12:54:08;101252.63;;;22.17;35.34
55077;BME280;40971;44.702;11.030;2023-04-26T13:04:12;101252.09;;;22.86;31.75
55077;BME280;40971;44.702;11.030;2023-04-26T13:14:14;101252.59;;;21.87;33.50
55077;BME280;40971;44.702;11.030;2023-04-26T13:24:18;101243.84;;;23.11;33.31
55077;BME280;40971;44.702;11.030;2023-04-26T13:34:20;101249.53;;;23.14;32.06
55077;BME280;40971;44.702;11.030;2023-04-26T13:44:24;101235.44;;;22.25;31.51
55077;BME280;40971;44.702;11.030;2023-04-26T13:54:27;101218.16;;;22.50;32.95
55077;BME280;40971;44.702;11.030;2023-04-26T14:04:28;101210.22;;;22.44;31.76
55077;BME280;40971;44.702;11.030;2023-04-26T14:14:29;101218.22;;;22.32;32.10
55077;BME280;40971;44.702;11.030;2023-04-26T14:24:30;101213.97;;;21.95;31.15
55077;BME280;40971;44.702;11.030;2023-04-26T14:34:33;101214.75;;;22.85;28.51
55077;BME280;40971;44.702;11.030;2023-04-26T14:44:40;101203.25;;;23.31;24.41
55077;BME280;40971;44.702;11.030;2023-04-26T14:54:43;101197.28;;;23.52;23.41
55077;BME280;40971;44.702;11.030;2023-04-26T15:04:46;101187.13;;;23.31;25.69
55077;BME280;40971;44.702;11.030;2023-04-26T15:14:49;101175.81;;;22.29;24.25
55077;BME280;40971;44.702;11.030;2023-04-26T15:24:50;101187.88;;;21.72;29.77
55077;BME280;40971;44.702;11.030;2023-04-26T15:34:51;101186.25;;;21.71;30.64
55077;BME280;40971;44.702;11.030;2023-04-26T15:44:52;101185.53;;;22.12;28.45
55077;BME280;40971;44.702;11.030;2023-04-26T15:54:55;101187.94;;;21.84;28.58
55077;BME280;40971;44.702;11.030;2023-04-26T16:04:56;101165.19;;;21.75;29.25
55077;BME280;40971;44.702;11.030;2023-04-26T16:14:57;101181.75;;;21.11;29.89
55077;BME280;40971;44.702;11.030;2023-04-26T16:24:59;101173.63;;;21.42;28.42
55077;BME280;40971;44.702;11.030;2023-04-26T16:35:00;101178.06;;;21.12;28.27
55077;BME280;40971;44.702;11.030;2023-04-26T16:45:01;101164.63;;;21.18;26.57
55077;BME280;40971;44.702;11.030;2023-04-26T16:55:02;101168.34;;;21.17;25.72
55077;BME280;40971;44.702;11.030;2023-04-26T17:05:04;101160.00;;;20.58;31.74
55077;BME280;40971;44.702;11.030;2023-04-26T17:15:05;101157.94;;;19.91;32.65
55077;BME280;40971;44.702;11.030;2023-04-26T17:25:06;101158.50;;;19.55;35.37
55077;BME280;40971;44.702;11.030;2023-04-26T17:35:08;101168.41;;;18.23;42.63
55077;BME280;40971;44.702;11.030;2023-04-26T17:45:10;101167.78;;;17.26;46.83
55077;BME280;40971;44.702;11.030;2023-04-26T17:55:11;101184.19;;;16.74;48.62
55077;BME280;40971;44.702;11.030;2023-04-26T18:05:12;101193.13;;;16.52;48.17
55077;BME280;40971;44.702;11.030;2023-04-26T18:15:13;101191.41;;;16.23;49.38
55077;BME280;40971;44.702;11.030;2023-04-26T18:25:14;101213.09;;;15.77;50.47
55077;BME280;40971;44.702;11.030;2023-04-26T18:35:15;101219.78;;;15.58;50.68
55077;BME280;40971;44.702;11.030;2023-04-26T18:45:16;101233.47;;;15.47;50.59
55077;BME280;40971;44.702;11.030;2023-04-26T18:55:18;101227.94;;;15.19;52.29
55077;BME280;40971;44.702;11.030;2023-04-26T19:05:19;101245.59;;;14.89;53.03
55077;BME280;40971;44.702;11.030;2023-04-26T19:15:20;101255.00;;;14.46;54.96
55077;BME280;40971;44.702;11.030;2023-04-26T19:25:21;101252.13;;;14.25;55.54
55077;BME280;40971;44.702;11.030;2023-04-26T19:35:23;101262.16;;;13.99;56.64
55077;BME280;40971;44.702;11.030;2023-04-26T19:45:25;101268.84;;;13.87;57.46
55077;BME280;40971;44.702;11.030;2023-04-26T19:55:26;101283.22;;;13.76;58.17
55077;BME280;40971;44.702;11.030;2023-04-26T20:05:29;101294.97;;;13.66;58.57
55077;BME280;40971;44.702;11.030;2023-04-26T20:15:30;101290.41;;;13.43;60.17
55077;BME280;40971;44.702;11.030;2023-04-26T20:25:31;101299.19;;;13.20;60.69
55077;BME280;40971;44.702;11.030;2023-04-26T20:35:32;101301.28;;;12.84;63.14
55077;BME280;40971;44.702;11.030;2023-04-26T20:45:33;101305.84;;;12.66;63.92
55077;BME280;40971;44.702;11.030;2023-04-26T20:55:34;101311.38;;;12.31;64.61
55077;BME280;40971;44.702;11.030;2023-04-26T21:05:35;101321.78;;;11.98;65.34
55077;BME280;40971;44.702;11.030;2023-04-26T21:15:37;101332.75;;;11.68;66.15
55077;BME280;40971;44.702;11.030;2023-04-26T21:25:42;101339.94;;;10.79;70.32
55077;BME280;40971;44.702;11.030;2023-04-26T21:35:44;101336.56;;;11.04;69.61
55077;BME280;40971;44.702;11.030;2023-04-26T21:45:45;101338.41;;;10.94;69.46
55077;BME280;40971;44.702;11.030;2023-04-26T21:55:53;101356.69;;;10.78;71.41
55077;BME280;40971;44.702;11.030;2023-04-26T22:05:54;101343.03;;;10.75;70.29
55077;BME280;40971;44.702;11.030;2023-04-26T22:15:55;101369.81;;;10.61;70.94
55077;BME280;40971;44.702;11.030;2023-04-26T22:25:56;101376.72;;;10.62;70.81
55077;BME280;40971;44.702;11.030;2023-04-26T22:35:59;101377.34;;;10.19;72.04
55077;BME280;40971;44.702;11.030;2023-04-26T22:46:00;101379.31;;;9.98;72.90
55077;BME280;40971;44.702;11.030;2023-04-26T22:56:01;101391.56;;;10.16;73.16
55077;BME280;40971;44.702;11.030;2023-04-26T23:06:03;101402.69;;;9.91;73.91
55077;BME280;40971;44.702;11.030;2023-04-26T23:16:05;101400.50;;;9.86;74.28
55077;BME280;40971;44.702;11.030;2023-04-26T23:26:06;101401.06;;;9.80;75.10
55077;BME280;40971;44.702;11.030;2023-04-26T23:36:07;101417.81;;;9.79;75.63
55077;BME280;40971;44.702;11.030;2023-04-26T23:46:10;101406.47;;;9.79;74.06
55077;BME280;40971;44.702;11.030;2023-04-26T23:56:11;101396.25;;;9.66;73.92
